الصفحة الرئيسية
METAR-TAF:

METAR-TAF

مطار :

قرطبة، الأرجنتين, الأرجنتين

دائرة عرض: 31-19S, خط طول: 064-13W, ارتفاع: 484 متر

مراقبة الطقس الحالي

تاريخ ووقت الإصدار 34 دقيقة قبل الساعة 13:00UTC
ريح 8 عقدة من الجنوب/الجنوب الشرقي
درجة الحرارة 18°درجة مئوية
الرطوبة 83%
ضغط 1019 hPa
الرؤية 10 كم أو أكثر
غيوم متفرقة على ارتفاع 1200 قدم
غيوم مفككة على ارتفاع 1500 قدم

METAR: SACO 231300Z 16008KT 9999 SCT012 BKN015 18/15 Q1019

زمن: 10:34 (13:34 UTC)

توقعات

تاريخ ووقت الإصدار 2ساعات و 34 دقيقة قبل الساعة 11:00UTC
التوقعات صالحة من23 الساعة 12 UTC إلى 24 الساعة 12 UTC
ريح 10 عقدة من الشرق
الرؤية 10 كم أو أكثر
غيوم مفككة على ارتفاع 1200 قدم
أصبح
من 24 الساعة 00 UTC إلى 24 الساعة 03 UTC
ريح 10 عقدة من الجنوب الشرقي
الرؤية: 5000 متر
غيوم متفرقة على ارتفاع 1000 قدم
غيوم مفككة على ارتفاع 3500 قدم
غيوم قليلة على ارتفاع 4000 قدم, مزنة ركامية.
عاصفة رعدية, مطر

TAF: SACO 231100Z 2312/2412 09010KT 9999 BKN012 OVC0 TX22/2319Z TN17/2411Z BECMG 2400/2403 14010KT 5000 TSRA SCT010 BKN035 FEW040CB

أرصاد الطقس والتوقعات من أكثر من 4000 مطار (تقارير الطقس للمطار METAR والتنبؤ بالطقس بالمطارTAF).

المحطات المتاحة هي النقط الصفراء والحمراء على الخريطة.

حرك المؤشر فوق النقطة لمعرفة اسم المحطة.

ثم انقر لمعرفة أرصاد وتوقعات الطقس.

لتغيير الخارطة: اضغط على الأزرار الخضراء مع رمز الصليب الأسود للتكبير. على الزر الأخضر مع شرطة للتصغير، أو على الأسهم الخضراء للخرائط المجاورة.


METAR-TAF: